Mount Washington, Canada
Current Conditions -  °F | °C
As of 9:00 PM on Sunday 19 Oct 2014 (Local Time) from CYBL Reporting Station
Overcast Overcast  
Wind Chill: 54°   Ceiling: 8700
Heat Index: 54°   Visibility: 15mi
Dew Point: 50°   Wind: 2mph
Humidity: 88%   Direction: NA
Pressure: 29.59"   Gusts: NA
Location:  49.74°N, 125.26°W
Report Text: CYBL 200400Z VRB02KT 15SM BKN087 OVC250 12/10 A2959 RMK AC5CI3 LAST OBS/NEXT 201300UTC SLP020 DENSITY ALT 400FT
Loading
Personal Weather Stations






























Interactive Weather Map
Tropical Storm Tracking
New forecast layout! Learn more

10-Day Weather Forecast

Advertisements
Track Severe Weather on mobile